KLSE/LSE METAR and TAF weather

Enter ICAO airport designator
Station Type Date Time Source
KLSE METAR 2019/12/11 11:53 UTC NOAA

KLSE 111153Z 29008KT 10SM FEW025 M14/M19 A3033 RMK AO2 SLP297 T11441189 11128 21156 53019


Station Type Date Time Source
KLSE Decoded METAR 2019/12/11 11:53 UTC NOAA

LA CROSSE MUNICIPAL AIRPORT , WI, United States (KLSE) 43-53N 091-15W 200M
Dec 11, 2019 - 06:53 AM EST / 2019.12.11 1153 UTC
Wind: from the WNW (290 degrees) at 9 MPH (8 KT):0
Visibility: 10 mile(s):0
Sky conditions: mostly clear
Temperature: 6.1 F (-14.4 C)
Windchill: -7 F (-22 C):2
Dew Point: -2.0 F (-18.9 C)
Relative Humidity: 68%
Pressure (altimeter): 30.33 in. Hg (1027 hPa)
Pressure tendency: 0.06 inches (1.9 hPa) higher than three hours ago
ob: KLSE 111153Z 29008KT 10SM FEW025 M14/M19 A3033 RMK AO2 SLP297 T11441189 11128 21156 53019
cycle: 12

Station Type Date Time Source
KLSE TAF 2019/12/11 12:33 UTC NOAA

TAF KLSE 111130Z 1112/1212 31009KT P6SM SCT150
FM120000 VRB03KT P6SM BKN150
FM120600 12005KT P6SM OVC120

Example: see airport list